Terminal Aerodrome Forecast
Issued by NWS

Current Version | Previous Version | Graphics & Text | Print | Product List | Glossary On
Versions: 1 2 3 4 5 6 7 8 9 10 11 12 13 14 15 16 17 18 19 20 21
000
FTUS41 KILN 252000 AAA
TAFLUK
TAF AMD
KLUK 252056Z 2521/2618 22009KT P6SM OVC029
     FM260200 18005KT P6SM SCT200
     FM261500 20009G19KT P6SM SCT200=

USA.gov is the U.S. government's official web portal to all federal, state and local government web resources and services.